sensor_id;sensor_type;location;lat;lon;timestamp;P1;durP1;ratioP1;P2;durP2;ratioP2
71665;SDS011;59503;53.486;10.196;2023-01-26T00:00:53;84.82;;;21.73;;
71665;SDS011;59503;53.486;10.196;2023-01-26T00:03:20;83.53;;;20.70;;
71665;SDS011;59503;53.486;10.196;2023-01-26T00:05:45;81.50;;;19.05;;
71665;SDS011;59503;53.486;10.196;2023-01-26T00:08:11;79.53;;;20.92;;
71665;SDS011;59503;53.486;10.196;2023-01-26T00:10:38;74.97;;;19.90;;
71665;SDS011;59503;53.486;10.196;2023-01-26T00:13:05;74.72;;;19.08;;
71665;SDS011;59503;53.486;10.196;2023-01-26T00:15:31;74.38;;;20.40;;
71665;SDS011;59503;53.486;10.196;2023-01-26T00:17:58;69.03;;;19.88;;
71665;SDS011;59503;53.486;10.196;2023-01-26T00:20:24;75.20;;;18.30;;
71665;SDS011;59503;53.486;10.196;2023-01-26T00:22:50;69.83;;;18.57;;
71665;SDS011;59503;53.486;10.196;2023-01-26T00:25:16;69.97;;;18.10;;
71665;SDS011;59503;53.486;10.196;2023-01-26T00:27:41;72.40;;;19.67;;
71665;SDS011;59503;53.486;10.196;2023-01-26T00:30:07;79.53;;;17.83;;
71665;SDS011;59503;53.486;10.196;2023-01-26T00:32:36;64.30;;;17.92;;
71665;SDS011;59503;53.486;10.196;2023-01-26T00:35:02;74.93;;;18.08;;
71665;SDS011;59503;53.486;10.196;2023-01-26T00:37:29;70.77;;;17.17;;
71665;SDS011;59503;53.486;10.196;2023-01-26T00:39:54;66.45;;;17.20;;
71665;SDS011;59503;53.486;10.196;2023-01-26T00:42:19;65.50;;;17.07;;
71665;SDS011;59503;53.486;10.196;2023-01-26T00:44:45;71.72;;;18.20;;
71665;SDS011;59503;53.486;10.196;2023-01-26T00:47:12;69.17;;;18.07;;
71665;SDS011;59503;53.486;10.196;2023-01-26T00:49:38;66.40;;;16.45;;
71665;SDS011;59503;53.486;10.196;2023-01-26T00:52:03;68.63;;;17.87;;
71665;SDS011;59503;53.486;10.196;2023-01-26T00:54:30;70.43;;;18.33;;
71665;SDS011;59503;53.486;10.196;2023-01-26T00:56:55;65.03;;;16.63;;
71665;SDS011;59503;53.486;10.196;2023-01-26T00:59:20;69.27;;;17.90;;
71665;SDS011;59503;53.486;10.196;2023-01-26T01:01:46;68.77;;;18.07;;
71665;SDS011;59503;53.486;10.196;2023-01-26T01:04:13;65.70;;;18.20;;
71665;SDS011;59503;53.486;10.196;2023-01-26T01:06:39;70.57;;;19.20;;
71665;SDS011;59503;53.486;10.196;2023-01-26T01:09:04;63.33;;;17.10;;
71665;SDS011;59503;53.486;10.196;2023-01-26T01:11:30;73.23;;;17.53;;
71665;SDS011;59503;53.486;10.196;2023-01-26T01:13:55;72.28;;;17.70;;
71665;SDS011;59503;53.486;10.196;2023-01-26T01:16:21;77.43;;;20.30;;
71665;SDS011;59503;53.486;10.196;2023-01-26T01:18:47;75.63;;;17.95;;
71665;SDS011;59503;53.486;10.196;2023-01-26T01:21:13;74.83;;;18.37;;
71665;SDS011;59503;53.486;10.196;2023-01-26T01:23:40;62.58;;;17.27;;
71665;SDS011;59503;53.486;10.196;2023-01-26T01:26:07;74.70;;;20.27;;
71665;SDS011;59503;53.486;10.196;2023-01-26T01:28:33;65.55;;;17.75;;
71665;SDS011;59503;53.486;10.196;2023-01-26T01:30:59;71.70;;;18.25;;
71665;SDS011;59503;53.486;10.196;2023-01-26T01:33:27;78.47;;;19.07;;
71665;SDS011;59503;53.486;10.196;2023-01-26T01:35:56;70.43;;;18.53;;
71665;SDS011;59503;53.486;10.196;2023-01-26T01:38:22;76.13;;;20.25;;
71665;SDS011;59503;53.486;10.196;2023-01-26T01:40:48;74.00;;;19.83;;
71665;SDS011;59503;53.486;10.196;2023-01-26T01:43:13;79.97;;;20.70;;
71665;SDS011;59503;53.486;10.196;2023-01-26T01:45:43;77.53;;;19.00;;
71665;SDS011;59503;53.486;10.196;2023-01-26T01:50:44;75.50;;;20.10;;
71665;SDS011;59503;53.486;10.196;2023-01-26T01:53:12;76.32;;;18.58;;
71665;SDS011;59503;53.486;10.196;2023-01-26T01:55:44;73.63;;;17.77;;
71665;SDS011;59503;53.486;10.196;2023-01-26T01:58:10;77.97;;;18.65;;
71665;SDS011;59503;53.486;10.196;2023-01-26T02:00:36;82.88;;;19.30;;
71665;SDS011;59503;53.486;10.196;2023-01-26T02:03:03;83.30;;;19.30;;
71665;SDS011;59503;53.486;10.196;2023-01-26T02:08:21;80.05;;;19.20;;
71665;SDS011;59503;53.486;10.196;2023-01-26T02:10:51;79.55;;;20.15;;
71665;SDS011;59503;53.486;10.196;2023-01-26T02:13:19;77.63;;;20.80;;
71665;SDS011;59503;53.486;10.196;2023-01-26T02:15:47;78.90;;;18.95;;
71665;SDS011;59503;53.486;10.196;2023-01-26T02:18:13;73.55;;;18.80;;
71665;SDS011;59503;53.486;10.196;2023-01-26T02:20:49;85.43;;;20.08;;
71665;SDS011;59503;53.486;10.196;2023-01-26T02:23:22;77.72;;;18.70;;
71665;SDS011;59503;53.486;10.196;2023-01-26T02:28:17;69.75;;;17.70;;
71665;SDS011;59503;53.486;10.196;2023-01-26T02:30:45;75.55;;;20.58;;
71665;SDS011;59503;53.486;10.196;2023-01-26T02:33:16;67.72;;;18.73;;
71665;SDS011;59503;53.486;10.196;2023-01-26T02:35:42;75.00;;;18.50;;
71665;SDS011;59503;53.486;10.196;2023-01-26T02:38:08;81.78;;;19.83;;
71665;SDS011;59503;53.486;10.196;2023-01-26T02:43:10;83.00;;;20.17;;
71665;SDS011;59503;53.486;10.196;2023-01-26T02:45:36;77.40;;;18.83;;
71665;SDS011;59503;53.486;10.196;2023-01-26T02:48:04;77.80;;;19.30;;
71665;SDS011;59503;53.486;10.196;2023-01-26T02:50:30;79.05;;;18.80;;
71665;SDS011;59503;53.486;10.196;2023-01-26T02:52:56;74.70;;;19.83;;
71665;SDS011;59503;53.486;10.196;2023-01-26T02:55:22;76.15;;;19.17;;
71665;SDS011;59503;53.486;10.196;2023-01-26T02:57:56;79.93;;;19.35;;
71665;SDS011;59503;53.486;10.196;2023-01-26T03:00:28;79.97;;;19.05;;
71665;SDS011;59503;53.486;10.196;2023-01-26T03:02:56;91.47;;;20.47;;
71665;SDS011;59503;53.486;10.196;2023-01-26T03:05:24;71.35;;;18.00;;
71665;SDS011;59503;53.486;10.196;2023-01-26T03:07:50;79.55;;;19.40;;
71665;SDS011;59503;53.486;10.196;2023-01-26T03:10:15;78.07;;;18.47;;
71665;SDS011;59503;53.486;10.196;2023-01-26T03:12:42;79.80;;;19.60;;
71665;SDS011;59503;53.486;10.196;2023-01-26T03:15:09;73.38;;;18.65;;
71665;SDS011;59503;53.486;10.196;2023-01-26T03:18:04;66.82;;;17.45;;
71665;SDS011;59503;53.486;10.196;2023-01-26T03:20:50;72.30;;;18.38;;
71665;SDS011;59503;53.486;10.196;2023-01-26T03:23:33;74.27;;;16.37;;
71665;SDS011;59503;53.486;10.196;2023-01-26T03:26:17;67.60;;;17.83;;
71665;SDS011;59503;53.486;10.196;2023-01-26T03:29:01;67.70;;;16.60;;
71665;SDS011;59503;53.486;10.196;2023-01-26T03:31:26;63.40;;;16.73;;
71665;SDS011;59503;53.486;10.196;2023-01-26T03:33:52;69.37;;;16.93;;
71665;SDS011;59503;53.486;10.196;2023-01-26T03:36:17;71.35;;;16.33;;
71665;SDS011;59503;53.486;10.196;2023-01-26T03:38:42;68.43;;;17.83;;
71665;SDS011;59503;53.486;10.196;2023-01-26T03:41:08;71.57;;;17.73;;
71665;SDS011;59503;53.486;10.196;2023-01-26T03:43:52;72.35;;;18.27;;
71665;SDS011;59503;53.486;10.196;2023-01-26T03:46:36;66.78;;;15.95;;
71665;SDS011;59503;53.486;10.196;2023-01-26T03:49:20;71.37;;;16.97;;
71665;SDS011;59503;53.486;10.196;2023-01-26T03:52:04;74.53;;;17.88;;
71665;SDS011;59503;53.486;10.196;2023-01-26T03:54:48;73.85;;;17.42;;
71665;SDS011;59503;53.486;10.196;2023-01-26T03:57:32;72.18;;;16.98;;
71665;SDS011;59503;53.486;10.196;2023-01-26T03:59:57;69.37;;;17.43;;
71665;SDS011;59503;53.486;10.196;2023-01-26T04:02:22;71.47;;;18.57;;
71665;SDS011;59503;53.486;10.196;2023-01-26T04:05:06;66.07;;;16.05;;
71665;SDS011;59503;53.486;10.196;2023-01-26T04:07:50;81.10;;;18.67;;
71665;SDS011;59503;53.486;10.196;2023-01-26T04:10:34;74.72;;;18.42;;
71665;SDS011;59503;53.486;10.196;2023-01-26T04:12:59;72.63;;;18.23;;
71665;SDS011;59503;53.486;10.196;2023-01-26T04:15:46;79.65;;;17.88;;
71665;SDS011;59503;53.486;10.196;2023-01-26T04:18:30;76.83;;;17.77;;
71665;SDS011;59503;53.486;10.196;2023-01-26T04:21:15;76.47;;;18.13;;
71665;SDS011;59503;53.486;10.196;2023-01-26T04:23:57;66.10;;;17.88;;
71665;SDS011;59503;53.486;10.196;2023-01-26T04:26:25;80.63;;;18.95;;
71665;SDS011;59503;53.486;10.196;2023-01-26T04:28:58;82.35;;;19.25;;
71665;SDS011;59503;53.486;10.196;2023-01-26T04:31:28;77.73;;;18.63;;
71665;SDS011;59503;53.486;10.196;2023-01-26T04:33:54;87.45;;;20.02;;
71665;SDS011;59503;53.486;10.196;2023-01-26T04:36:19;77.37;;;18.67;;
71665;SDS011;59503;53.486;10.196;2023-01-26T04:38:45;86.30;;;19.98;;
71665;SDS011;59503;53.486;10.196;2023-01-26T04:41:10;83.10;;;20.67;;
71665;SDS011;59503;53.486;10.196;2023-01-26T04:43:36;81.80;;;18.03;;
71665;SDS011;59503;53.486;10.196;2023-01-26T04:46:02;71.23;;;17.93;;
71665;SDS011;59503;53.486;10.196;2023-01-26T04:48:30;75.18;;;18.55;;
71665;SDS011;59503;53.486;10.196;2023-01-26T04:51:00;84.60;;;19.30;;
71665;SDS011;59503;53.486;10.196;2023-01-26T04:53:41;69.10;;;17.50;;
71665;SDS011;59503;53.486;10.196;2023-01-26T04:56:08;79.78;;;17.73;;
71665;SDS011;59503;53.486;10.196;2023-01-26T04:58:46;68.93;;;17.65;;
71665;SDS011;59503;53.486;10.196;2023-01-26T05:01:11;64.43;;;16.50;;
71665;SDS011;59503;53.486;10.196;2023-01-26T05:03:37;80.77;;;19.87;;
71665;SDS011;59503;53.486;10.196;2023-01-26T05:06:02;74.90;;;19.75;;
71665;SDS011;59503;53.486;10.196;2023-01-26T05:08:28;77.37;;;18.77;;
71665;SDS011;59503;53.486;10.196;2023-01-26T05:10:53;71.00;;;17.60;;
71665;SDS011;59503;53.486;10.196;2023-01-26T05:13:19;73.50;;;17.80;;
71665;SDS011;59503;53.486;10.196;2023-01-26T05:15:45;68.47;;;17.63;;
71665;SDS011;59503;53.486;10.196;2023-01-26T05:18:11;72.00;;;18.13;;
71665;SDS011;59503;53.486;10.196;2023-01-26T05:20:37;70.20;;;16.25;;
71665;SDS011;59503;53.486;10.196;2023-01-26T05:23:03;67.53;;;17.43;;
71665;SDS011;59503;53.486;10.196;2023-01-26T05:25:28;74.87;;;20.13;;
71665;SDS011;59503;53.486;10.196;2023-01-26T05:27:53;69.53;;;16.80;;
71665;SDS011;59503;53.486;10.196;2023-01-26T05:30:19;75.50;;;17.88;;
71665;SDS011;59503;53.486;10.196;2023-01-26T05:32:44;73.00;;;17.13;;
71665;SDS011;59503;53.486;10.196;2023-01-26T05:35:10;72.27;;;19.03;;
71665;SDS011;59503;53.486;10.196;2023-01-26T05:37:35;73.47;;;18.15;;
71665;SDS011;59503;53.486;10.196;2023-01-26T05:40:02;68.87;;;19.20;;
71665;SDS011;59503;53.486;10.196;2023-01-26T05:42:28;77.68;;;18.02;;
71665;SDS011;59503;53.486;10.196;2023-01-26T05:44:53;76.72;;;18.48;;
71665;SDS011;59503;53.486;10.196;2023-01-26T05:47:19;75.47;;;18.03;;
71665;SDS011;59503;53.486;10.196;2023-01-26T05:49:45;67.53;;;17.55;;
71665;SDS011;59503;53.486;10.196;2023-01-26T05:52:11;78.47;;;18.83;;
71665;SDS011;59503;53.486;10.196;2023-01-26T05:54:39;61.55;;;16.40;;
71665;SDS011;59503;53.486;10.196;2023-01-26T05:57:04;62.57;;;17.13;;
71665;SDS011;59503;53.486;10.196;2023-01-26T05:59:30;73.20;;;18.23;;
71665;SDS011;59503;53.486;10.196;2023-01-26T06:01:56;68.30;;;16.70;;
71665;SDS011;59503;53.486;10.196;2023-01-26T06:04:21;66.32;;;17.17;;
71665;SDS011;59503;53.486;10.196;2023-01-26T06:06:47;68.03;;;16.93;;
71665;SDS011;59503;53.486;10.196;2023-01-26T06:09:12;62.73;;;15.73;;
71665;SDS011;59503;53.486;10.196;2023-01-26T06:11:38;67.32;;;16.38;;
71665;SDS011;59503;53.486;10.196;2023-01-26T06:14:03;64.27;;;17.23;;
71665;SDS011;59503;53.486;10.196;2023-01-26T06:16:28;66.33;;;18.87;;
71665;SDS011;59503;53.486;10.196;2023-01-26T06:18:54;62.58;;;15.43;;
71665;SDS011;59503;53.486;10.196;2023-01-26T06:21:19;62.27;;;14.43;;
71665;SDS011;59503;53.486;10.196;2023-01-26T06:23:45;67.13;;;16.53;;
71665;SDS011;59503;53.486;10.196;2023-01-26T06:26:11;69.53;;;16.35;;
71665;SDS011;59503;53.486;10.196;2023-01-26T06:28:36;69.77;;;17.10;;
71665;SDS011;59503;53.486;10.196;2023-01-26T06:31:02;57.50;;;15.80;;
71665;SDS011;59503;53.486;10.196;2023-01-26T06:33:30;60.92;;;15.43;;
71665;SDS011;59503;53.486;10.196;2023-01-26T06:36:05;68.45;;;16.48;;
71665;SDS011;59503;53.486;10.196;2023-01-26T06:38:35;64.68;;;16.05;;
71665;SDS011;59503;53.486;10.196;2023-01-26T06:41:02;60.35;;;15.43;;
71665;SDS011;59503;53.486;10.196;2023-01-26T06:43:29;60.73;;;16.47;;
71665;SDS011;59503;53.486;10.196;2023-01-26T06:45:56;65.03;;;15.05;;
71665;SDS011;59503;53.486;10.196;2023-01-26T06:48:22;62.45;;;16.05;;
71665;SDS011;59503;53.486;10.196;2023-01-26T06:50:49;68.65;;;15.93;;
71665;SDS011;59503;53.486;10.196;2023-01-26T06:53:36;64.35;;;15.65;;
71665;SDS011;59503;53.486;10.196;2023-01-26T06:56:04;69.20;;;16.27;;
71665;SDS011;59503;53.486;10.196;2023-01-26T06:58:30;67.97;;;15.35;;
71665;SDS011;59503;53.486;10.196;2023-01-26T07:00:56;66.60;;;17.00;;
71665;SDS011;59503;53.486;10.196;2023-01-26T07:03:21;66.63;;;15.00;;
71665;SDS011;59503;53.486;10.196;2023-01-26T07:05:47;62.55;;;14.77;;
71665;SDS011;59503;53.486;10.196;2023-01-26T07:08:13;53.93;;;12.97;;
71665;SDS011;59503;53.486;10.196;2023-01-26T07:10:38;65.65;;;15.45;;
71665;SDS011;59503;53.486;10.196;2023-01-26T07:13:04;61.10;;;15.00;;
71665;SDS011;59503;53.486;10.196;2023-01-26T07:15:30;55.72;;;14.90;;
71665;SDS011;59503;53.486;10.196;2023-01-26T07:17:56;50.60;;;14.17;;
71665;SDS011;59503;53.486;10.196;2023-01-26T07:20:22;55.40;;;14.05;;
71665;SDS011;59503;53.486;10.196;2023-01-26T07:22:48;51.05;;;13.15;;
71665;SDS011;59503;53.486;10.196;2023-01-26T07:25:15;64.45;;;15.13;;
71665;SDS011;59503;53.486;10.196;2023-01-26T07:27:41;58.35;;;15.45;;
71665;SDS011;59503;53.486;10.196;2023-01-26T07:30:07;49.20;;;13.57;;
71665;SDS011;59503;53.486;10.196;2023-01-26T07:32:34;52.08;;;14.02;;
71665;SDS011;59503;53.486;10.196;2023-01-26T07:34:59;55.20;;;13.40;;
71665;SDS011;59503;53.486;10.196;2023-01-26T07:37:28;60.03;;;13.77;;
71665;SDS011;59503;53.486;10.196;2023-01-26T07:39:54;48.70;;;12.87;;
71665;SDS011;59503;53.486;10.196;2023-01-26T07:42:19;48.88;;;13.68;;
71665;SDS011;59503;53.486;10.196;2023-01-26T07:44:45;48.63;;;12.90;;
71665;SDS011;59503;53.486;10.196;2023-01-26T07:47:10;53.05;;;13.43;;
71665;SDS011;59503;53.486;10.196;2023-01-26T07:49:36;55.97;;;14.47;;
71665;SDS011;59503;53.486;10.196;2023-01-26T07:52:01;49.43;;;13.47;;
71665;SDS011;59503;53.486;10.196;2023-01-26T07:54:27;49.53;;;11.93;;
71665;SDS011;59503;53.486;10.196;2023-01-26T07:56:53;50.53;;;13.33;;
71665;SDS011;59503;53.486;10.196;2023-01-26T07:59:19;48.92;;;13.93;;
71665;SDS011;59503;53.486;10.196;2023-01-26T08:01:47;52.60;;;13.75;;
71665;SDS011;59503;53.486;10.196;2023-01-26T08:04:13;52.60;;;13.85;;
71665;SDS011;59503;53.486;10.196;2023-01-26T08:06:38;45.23;;;12.33;;
71665;SDS011;59503;53.486;10.196;2023-01-26T08:09:04;45.07;;;12.53;;
71665;SDS011;59503;53.486;10.196;2023-01-26T08:11:29;51.67;;;14.13;;
71665;SDS011;59503;53.486;10.196;2023-01-26T08:13:55;52.23;;;12.60;;
71665;SDS011;59503;53.486;10.196;2023-01-26T08:16:20;50.53;;;12.77;;
71665;SDS011;59503;53.486;10.196;2023-01-26T08:18:46;37.67;;;12.17;;
71665;SDS011;59503;53.486;10.196;2023-01-26T08:21:12;45.55;;;12.43;;
71665;SDS011;59503;53.486;10.196;2023-01-26T08:23:40;43.50;;;12.98;;
71665;SDS011;59503;53.486;10.196;2023-01-26T08:26:07;45.37;;;12.97;;
71665;SDS011;59503;53.486;10.196;2023-01-26T08:28:34;46.75;;;13.18;;
71665;SDS011;59503;53.486;10.196;2023-01-26T08:31:04;43.80;;;13.02;;
71665;SDS011;59503;53.486;10.196;2023-01-26T08:33:31;43.77;;;12.00;;
71665;SDS011;59503;53.486;10.196;2023-01-26T08:36:04;40.25;;;10.82;;
71665;SDS011;59503;53.486;10.196;2023-01-26T08:38:31;49.55;;;13.30;;
71665;SDS011;59503;53.486;10.196;2023-01-26T08:40:58;44.30;;;12.30;;
71665;SDS011;59503;53.486;10.196;2023-01-26T08:43:24;43.38;;;12.95;;
71665;SDS011;59503;53.486;10.196;2023-01-26T08:45:50;50.97;;;12.80;;
71665;SDS011;59503;53.486;10.196;2023-01-26T08:48:15;46.83;;;12.37;;
71665;SDS011;59503;53.486;10.196;2023-01-26T08:50:41;42.90;;;11.87;;
71665;SDS011;59503;53.486;10.196;2023-01-26T08:53:06;43.90;;;12.40;;
71665;SDS011;59503;53.486;10.196;2023-01-26T08:55:33;45.23;;;12.03;;
71665;SDS011;59503;53.486;10.196;2023-01-26T08:57:59;42.50;;;12.38;;
71665;SDS011;59503;53.486;10.196;2023-01-26T09:00:25;45.40;;;12.43;;
71665;SDS011;59503;53.486;10.196;2023-01-26T09:02:57;41.67;;;11.75;;
71665;SDS011;59503;53.486;10.196;2023-01-26T09:05:24;48.70;;;11.13;;
71665;SDS011;59503;53.486;10.196;2023-01-26T09:07:49;45.93;;;11.90;;
71665;SDS011;59503;53.486;10.196;2023-01-26T09:10:14;46.60;;;13.07;;
71665;SDS011;59503;53.486;10.196;2023-01-26T09:12:40;41.17;;;11.93;;
71665;SDS011;59503;53.486;10.196;2023-01-26T09:15:06;37.80;;;11.10;;
71665;SDS011;59503;53.486;10.196;2023-01-26T09:17:32;45.75;;;12.10;;
71665;SDS011;59503;53.486;10.196;2023-01-26T09:19:57;48.93;;;12.10;;
71665;SDS011;59503;53.486;10.196;2023-01-26T09:22:23;39.57;;;11.50;;
71665;SDS011;59503;53.486;10.196;2023-01-26T09:24:48;43.90;;;11.65;;
71665;SDS011;59503;53.486;10.196;2023-01-26T09:27:13;46.40;;;11.57;;
71665;SDS011;59503;53.486;10.196;2023-01-26T09:29:39;50.23;;;12.70;;
71665;SDS011;59503;53.486;10.196;2023-01-26T09:32:04;46.60;;;12.60;;
71665;SDS011;59503;53.486;10.196;2023-01-26T09:34:30;47.42;;;12.27;;
71665;SDS011;59503;53.486;10.196;2023-01-26T09:36:55;44.03;;;11.73;;
71665;SDS011;59503;53.486;10.196;2023-01-26T09:39:21;41.93;;;11.53;;
71665;SDS011;59503;53.486;10.196;2023-01-26T09:41:48;44.20;;;13.30;;
71665;SDS011;59503;53.486;10.196;2023-01-26T09:44:23;43.03;;;12.40;;
71665;SDS011;59503;53.486;10.196;2023-01-26T09:46:53;48.05;;;12.27;;
71665;SDS011;59503;53.486;10.196;2023-01-26T09:54:53;36.58;;;11.23;;
71665;SDS011;59503;53.486;10.196;2023-01-26T10:08:45;35.90;;;10.70;;
71665;SDS011;59503;53.486;10.196;2023-01-26T10:11:47;34.43;;;10.27;;
71665;SDS011;59503;53.486;10.196;2023-01-26T10:14:10;39.50;;;11.75;;
71665;SDS011;59503;53.486;10.196;2023-01-26T10:16:41;35.97;;;11.13;;
71665;SDS011;59503;53.486;10.196;2023-01-26T10:19:58;33.22;;;10.43;;
71665;SDS011;59503;53.486;10.196;2023-01-26T10:22:16;30.58;;;9.10;;
71665;SDS011;59503;53.486;10.196;2023-01-26T10:24:49;35.70;;;10.63;;
71665;SDS011;59503;53.486;10.196;2023-01-26T10:27:17;37.88;;;12.35;;
71665;SDS011;59503;53.486;10.196;2023-01-26T10:29:43;36.65;;;10.18;;
71665;SDS011;59503;53.486;10.196;2023-01-26T10:32:15;39.93;;;11.60;;
71665;SDS011;59503;53.486;10.196;2023-01-26T10:34:41;41.00;;;10.65;;
71665;SDS011;59503;53.486;10.196;2023-01-26T10:40:03;31.08;;;9.48;;
71665;SDS011;59503;53.486;10.196;2023-01-26T10:42:32;33.87;;;9.87;;
71665;SDS011;59503;53.486;10.196;2023-01-26T10:44:59;34.88;;;10.48;;
71665;SDS011;59503;53.486;10.196;2023-01-26T10:47:26;34.75;;;9.35;;
71665;SDS011;59503;53.486;10.196;2023-01-26T10:50:12;32.15;;;8.80;;
71665;SDS011;59503;53.486;10.196;2023-01-26T10:53:00;32.50;;;9.65;;
71665;SDS011;59503;53.486;10.196;2023-01-26T10:55:28;34.13;;;10.27;;
71665;SDS011;59503;53.486;10.196;2023-01-26T10:57:54;30.88;;;9.70;;
71665;SDS011;59503;53.486;10.196;2023-01-26T11:02:49;33.57;;;9.27;;
71665;SDS011;59503;53.486;10.196;2023-01-26T11:05:23;31.13;;;9.00;;
71665;SDS011;59503;53.486;10.196;2023-01-26T11:07:50;29.88;;;9.95;;
71665;SDS011;59503;53.486;10.196;2023-01-26T11:15:39;37.10;;;10.77;;
71665;SDS011;59503;53.486;10.196;2023-01-26T11:18:14;34.78;;;11.02;;
71665;SDS011;59503;53.486;10.196;2023-01-26T11:20:45;29.88;;;8.65;;
71665;SDS011;59503;53.486;10.196;2023-01-26T11:23:23;33.60;;;9.33;;
71665;SDS011;59503;53.486;10.196;2023-01-26T11:31:14;35.40;;;9.25;;
71665;SDS011;59503;53.486;10.196;2023-01-26T11:34:05;33.28;;;10.40;;
71665;SDS011;59503;53.486;10.196;2023-01-26T11:39:33;43.08;;;10.23;;
71665;SDS011;59503;53.486;10.196;2023-01-26T11:44:49;37.63;;;9.65;;
71665;SDS011;59503;53.486;10.196;2023-01-26T11:56:05;48.05;;;12.57;;
71665;SDS011;59503;53.486;10.196;2023-01-26T11:58:54;47.55;;;11.38;;
71665;SDS011;59503;53.486;10.196;2023-01-26T12:01:45;40.67;;;11.90;;
71665;SDS011;59503;53.486;10.196;2023-01-26T12:04:17;43.97;;;11.70;;
71665;SDS011;59503;53.486;10.196;2023-01-26T12:06:44;47.55;;;12.00;;
71665;SDS011;59503;53.486;10.196;2023-01-26T12:09:14;44.38;;;11.80;;
71665;SDS011;59503;53.486;10.196;2023-01-26T12:22:33;54.33;;;13.35;;
71665;SDS011;59503;53.486;10.196;2023-01-26T12:27:57;59.50;;;14.27;;
71665;SDS011;59503;53.486;10.196;2023-01-26T12:30:35;63.87;;;15.47;;
71665;SDS011;59503;53.486;10.196;2023-01-26T12:33:11;69.05;;;15.85;;
71665;SDS011;59503;53.486;10.196;2023-01-26T12:38:18;65.67;;;15.47;;
71665;SDS011;59503;53.486;10.196;2023-01-26T12:42:02;71.28;;;16.27;;
71665;SDS011;59503;53.486;10.196;2023-01-26T12:46:42;61.97;;;16.85;;
71665;SDS011;59503;53.486;10.196;2023-01-26T12:49:34;66.07;;;15.50;;
71665;SDS011;59503;53.486;10.196;2023-01-26T12:52:07;59.60;;;15.00;;
71665;SDS011;59503;53.486;10.196;2023-01-26T12:54:42;71.35;;;15.35;;
71665;SDS011;59503;53.486;10.196;2023-01-26T12:57:15;55.00;;;13.43;;
71665;SDS011;59503;53.486;10.196;2023-01-26T12:59:45;50.08;;;12.95;;
71665;SDS011;59503;53.486;10.196;2023-01-26T13:04:45;61.27;;;14.73;;
71665;SDS011;59503;53.486;10.196;2023-01-26T13:07:28;69.90;;;15.60;;
71665;SDS011;59503;53.486;10.196;2023-01-26T13:15:13;61.53;;;14.52;;
71665;SDS011;59503;53.486;10.196;2023-01-26T13:17:45;60.60;;;13.20;;
71665;SDS011;59503;53.486;10.196;2023-01-26T13:20:14;53.85;;;11.95;;
71665;SDS011;59503;53.486;10.196;2023-01-26T13:22:47;42.90;;;11.02;;
71665;SDS011;59503;53.486;10.196;2023-01-26T13:27:45;43.17;;;10.25;;
71665;SDS011;59503;53.486;10.196;2023-01-26T13:35:11;31.87;;;9.07;;
71665;SDS011;59503;53.486;10.196;2023-01-26T13:40:40;30.83;;;7.60;;
71665;SDS011;59503;53.486;10.196;2023-01-26T13:45:39;20.85;;;6.28;;
71665;SDS011;59503;53.486;10.196;2023-01-26T13:48:18;19.23;;;6.03;;
71665;SDS011;59503;53.486;10.196;2023-01-26T13:50:52;23.80;;;5.67;;
71665;SDS011;59503;53.486;10.196;2023-01-26T13:53:37;20.65;;;6.65;;
71665;SDS011;59503;53.486;10.196;2023-01-26T13:56:21;16.73;;;5.80;;
71665;SDS011;59503;53.486;10.196;2023-01-26T13:58:49;19.25;;;5.72;;
71665;SDS011;59503;53.486;10.196;2023-01-26T14:01:16;26.77;;;5.85;;
71665;SDS011;59503;53.486;10.196;2023-01-26T14:03:42;17.43;;;5.80;;
71665;SDS011;59503;53.486;10.196;2023-01-26T14:06:08;21.92;;;6.78;;
71665;SDS011;59503;53.486;10.196;2023-01-26T14:08:36;21.83;;;6.38;;
71665;SDS011;59503;53.486;10.196;2023-01-26T14:11:04;23.50;;;6.03;;
71665;SDS011;59503;53.486;10.196;2023-01-26T14:13:43;16.98;;;5.45;;
71665;SDS011;59503;53.486;10.196;2023-01-26T14:16:19;25.08;;;5.72;;
71665;SDS011;59503;53.486;10.196;2023-01-26T14:18:47;26.02;;;6.03;;
71665;SDS011;59503;53.486;10.196;2023-01-26T14:21:16;18.98;;;5.57;;
71665;SDS011;59503;53.486;10.196;2023-01-26T14:23:44;20.77;;;5.57;;
71665;SDS011;59503;53.486;10.196;2023-01-26T14:28:45;21.00;;;6.17;;
71665;SDS011;59503;53.486;10.196;2023-01-26T14:33:45;26.33;;;5.22;;
71665;SDS011;59503;53.486;10.196;2023-01-26T14:36:11;21.17;;;5.88;;
71665;SDS011;59503;53.486;10.196;2023-01-26T14:38:43;18.97;;;5.60;;
71665;SDS011;59503;53.486;10.196;2023-01-26T14:43:53;23.90;;;6.00;;
71665;SDS011;59503;53.486;10.196;2023-01-26T14:46:24;20.10;;;6.43;;
71665;SDS011;59503;53.486;10.196;2023-01-26T14:48:56;20.88;;;6.22;;
71665;SDS011;59503;53.486;10.196;2023-01-26T14:51:27;20.77;;;6.33;;
71665;SDS011;59503;53.486;10.196;2023-01-26T14:53:59;20.67;;;5.80;;
71665;SDS011;59503;53.486;10.196;2023-01-26T14:56:37;29.48;;;6.57;;
71665;SDS011;59503;53.486;10.196;2023-01-26T14:59:05;22.13;;;5.78;;
71665;SDS011;59503;53.486;10.196;2023-01-26T15:01:33;22.52;;;6.07;;
71665;SDS011;59503;53.486;10.196;2023-01-26T15:04:03;24.03;;;6.43;;
71665;SDS011;59503;53.486;10.196;2023-01-26T15:06:43;25.90;;;7.35;;
71665;SDS011;59503;53.486;10.196;2023-01-26T15:09:25;26.80;;;6.90;;
71665;SDS011;59503;53.486;10.196;2023-01-26T15:11:52;30.65;;;7.30;;
71665;SDS011;59503;53.486;10.196;2023-01-26T15:22:53;31.37;;;7.70;;
71665;SDS011;59503;53.486;10.196;2023-01-26T15:28:04;27.90;;;7.28;;
71665;SDS011;59503;53.486;10.196;2023-01-26T15:30:30;27.25;;;7.95;;
71665;SDS011;59503;53.486;10.196;2023-01-26T15:32:58;26.70;;;7.40;;
71665;SDS011;59503;53.486;10.196;2023-01-26T15:35:31;27.05;;;6.93;;
71665;SDS011;59503;53.486;10.196;2023-01-26T15:38:07;27.05;;;7.88;;
71665;SDS011;59503;53.486;10.196;2023-01-26T15:40:34;28.27;;;6.97;;
71665;SDS011;59503;53.486;10.196;2023-01-26T15:43:03;26.55;;;7.22;;
71665;SDS011;59503;53.486;10.196;2023-01-26T15:45:36;21.08;;;6.35;;
71665;SDS011;59503;53.486;10.196;2023-01-26T15:48:04;21.70;;;6.55;;
71665;SDS011;59503;53.486;10.196;2023-01-26T15:50:29;20.63;;;6.33;;
71665;SDS011;59503;53.486;10.196;2023-01-26T15:52:55;22.37;;;6.00;;
71665;SDS011;59503;53.486;10.196;2023-01-26T15:55:23;21.25;;;6.20;;
71665;SDS011;59503;53.486;10.196;2023-01-26T15:57:53;19.87;;;6.90;;
71665;SDS011;59503;53.486;10.196;2023-01-26T16:00:18;28.05;;;6.85;;
71665;SDS011;59503;53.486;10.196;2023-01-26T16:02:44;20.27;;;6.70;;
71665;SDS011;59503;53.486;10.196;2023-01-26T16:05:13;23.23;;;7.67;;
71665;SDS011;59503;53.486;10.196;2023-01-26T16:07:41;22.90;;;8.43;;
71665;SDS011;59503;53.486;10.196;2023-01-26T16:10:07;23.38;;;7.22;;
71665;SDS011;59503;53.486;10.196;2023-01-26T16:12:33;24.47;;;7.70;;
71665;SDS011;59503;53.486;10.196;2023-01-26T16:14:59;20.65;;;7.70;;
71665;SDS011;59503;53.486;10.196;2023-01-26T16:17:25;22.15;;;7.38;;
71665;SDS011;59503;53.486;10.196;2023-01-26T16:19:51;18.47;;;7.20;;